Frankfort, IL

2:53 PM CST on December 27, 2014 (GMT -0600)
Krusemark Sub. | Change Station
CLOSE
Current Station
Personal Weather Station
Location: Frankfort, IL
Elevation: 770 ft
Nearby Weather Stations

Elev 770 ft 41.50 °N, 87.85 °W | Updated 45 seconds ago

Overcast
Overcast
37.3 °F
Feels Like 30 °F
N
11.0
Wind Variable Wind from WSW
Gusts 11.0 mph

Today
High -- | Low -- °F
--% Chance of Precip.
Yesterday
High -- | Low -- °F
Precip. -- in
7:16 AM 4:28 PM
Waxing Crescent, 40% visible
Pressure 30.05 in
Visibility 10.0 miles
Clouds Mostly Cloudy 2000 ft
Overcast 7500 ft
Windchill 30 °F
Dew Point 33 °F
Humidity 84%
Rainfall 0.00 in
Snow Depth Not available.
UV 0 out of 12
Pollen .10 out of 12
Air Quality Not available.
Flu Activity Not available.
METAR KLOT 272035Z AUTO 27016G24KT 10SM BKN020 OVC075 03/M01 A3005 RMK AO2 T00261010

More Conditions Fewer Conditions

Pressure 30.05 in
Visibility 10.0 miles
Clouds Mostly Cloudy 2000 ft
Overcast 7500 ft
Windchill 30 °F
Dew Point 33 °F
Humidity 84%
Rainfall 0.00 in
Snow Depth Not available.
UV 0 out of 12
Pollen .10 out of 12
Air Quality Not available.
Flu Activity Not available.
METAR KLOT 272035Z AUTO 27016G24KT 10SM BKN020 OVC075 03/M01 A3005 RMK AO2 T00261010

More Conditions Fewer Conditions

10-Day Weather Forecast

Almanac

Astronomy

Dec. 27, 2014 Rise Set
Actual Time
Civil Twilight
Nautical Twilight
Astronomical Twilight
Moon
Length of Visible Light
Length of Day
Tomorrow will be .
, % of the Moon is Illuminated

Today's Extremes

State Highs State Lows

Community

WunderPhotos

Upload Photos

1,781,053 photos uploaded!

WunderBlogs® & News

Nearby

Air Quality

  Air Quality AQ Index Pollutant
Not available.

Snow Depth

Station Depth Elevation

Earthquake Activity

City Distance Mag. Time & Date
Minimum magnitude displayed is 2.5.

Coastal Water Temperatures

Place Temperature

Nearby Weather Stations